createdAt,value
2023-05-19T00:00:54.311Z,5.83
2023-05-19T00:04:02.021Z,5.70
2023-05-19T00:07:08.509Z,6.28
2023-05-19T00:10:12.278Z,5.70
2023-05-19T00:13:15.262Z,6.00
2023-05-19T00:16:18.757Z,5.90
2023-05-19T00:19:22.492Z,5.53
2023-05-19T00:22:26.130Z,5.93
2023-05-19T00:25:29.057Z,5.97
2023-05-19T00:28:32.459Z,6.18
2023-05-19T00:31:35.542Z,7.67
2023-05-19T00:34:38.738Z,7.05
2023-05-19T00:37:41.691Z,8.05
2023-05-19T00:40:45.512Z,7.62
2023-05-19T00:43:48.390Z,8.80
2023-05-19T00:46:51.343Z,8.93
2023-05-19T00:49:54.499Z,9.00
2023-05-19T00:52:58.175Z,9.07
2023-05-19T00:56:02.360Z,9.40
2023-05-19T00:59:06.258Z,9.90
2023-05-19T01:02:09.207Z,9.43
2023-05-19T01:05:14.066Z,9.88
2023-05-19T01:08:17.390Z,10.40
2023-05-19T01:11:21.761Z,9.82
2023-05-19T01:14:24.552Z,9.63
2023-05-19T01:17:39.545Z,10.70
2023-05-19T01:20:58.325Z,9.98
2023-05-19T01:24:24.418Z,9.95
2023-05-19T01:27:30.209Z,10.05
2023-05-19T01:30:45.061Z,9.77
2023-05-19T01:33:49.880Z,10.40
2023-05-19T01:36:55.356Z,10.43
2023-05-19T01:39:58.482Z,9.85
2023-05-19T01:43:02.325Z,10.02
2023-05-19T01:46:06.960Z,9.75
2023-05-19T01:49:10.492Z,8.80
2023-05-19T01:52:13.342Z,9.38
2023-05-19T01:55:16.642Z,9.55
2023-05-19T01:58:38.574Z,9.68
2023-05-19T02:01:53.705Z,8.90
2023-05-19T02:05:03.263Z,9.33
2023-05-19T02:08:19.527Z,8.60
2023-05-19T02:12:03.284Z,8.90
2023-05-19T02:15:16.672Z,9.45
2023-05-19T02:18:20.667Z,8.73
2023-05-19T02:21:26.611Z,8.47
2023-05-19T02:24:31.130Z,9.38
2023-05-19T02:27:39.175Z,9.23
2023-05-19T02:30:42.567Z,8.95
2023-05-19T02:33:45.742Z,9.02
2023-05-19T02:36:51.807Z,8.87
2023-05-19T02:39:55.459Z,8.85
2023-05-19T02:42:58.151Z,9.20
2023-05-19T02:46:01.283Z,8.52
2023-05-19T02:49:04.135Z,9.05
2023-05-19T02:52:07.409Z,8.63
2023-05-19T02:55:10.565Z,9.18
2023-05-19T02:58:14.014Z,9.40
2023-05-19T03:01:16.841Z,9.02
2023-05-19T03:04:20.368Z,9.63
2023-05-19T03:07:25.530Z,10.13
2023-05-19T03:10:28.956Z,10.40
2023-05-19T03:13:32.256Z,10.98
2023-05-19T03:16:35.810Z,10.65
2023-05-19T03:19:38.586Z,10.38
2023-05-19T03:22:42.149Z,11.30
2023-05-19T03:25:45.127Z,10.80
2023-05-19T03:28:48.465Z,10.85
2023-05-19T03:31:52.266Z,9.98
2023-05-19T03:34:56.191Z,10.48
2023-05-19T03:37:59.073Z,10.30
2023-05-19T03:41:02.046Z,10.35
2023-05-19T03:44:05.094Z,10.80
2023-05-19T03:47:08.222Z,10.68
2023-05-19T03:50:14.090Z,11.12
2023-05-19T03:53:17.749Z,11.10
2023-05-19T03:56:23.289Z,10.63
2023-05-19T03:59:26.382Z,11.20
2023-05-19T04:02:29.194Z,11.20
2023-05-19T04:05:32.464Z,11.25
2023-05-19T04:08:36.023Z,11.13
2023-05-19T04:11:42.453Z,11.15
2023-05-19T04:14:45.133Z,11.15
2023-05-19T04:17:48.738Z,10.82
2023-05-19T04:20:51.589Z,11.15
2023-05-19T04:23:55.168Z,10.93
2023-05-19T04:27:02.715Z,11.70
2023-05-19T04:30:06.993Z,12.25
2023-05-19T04:33:10.382Z,12.63
2023-05-19T04:36:14.146Z,10.88
2023-05-19T04:39:17.366Z,11.80
2023-05-19T04:42:21.383Z,11.65
2023-05-19T04:45:26.052Z,11.85
2023-05-19T04:48:31.222Z,10.48
2023-05-19T04:51:34.112Z,10.48
2023-05-19T04:54:38.316Z,9.80
2023-05-19T04:57:42.003Z,10.80
2023-05-19T05:00:45.734Z,10.75
2023-05-19T05:03:48.725Z,9.35
2023-05-19T05:06:52.079Z,10.18
2023-05-19T05:09:55.106Z,10.93
2023-05-19T05:12:58.726Z,10.18
2023-05-19T05:16:01.691Z,11.10
2023-05-19T05:19:05.281Z,11.50
2023-05-19T05:22:08.881Z,12.02
2023-05-19T05:25:13.450Z,10.77
2023-05-19T05:28:16.749Z,10.10
2023-05-19T05:31:20.244Z,10.32
2023-05-19T05:34:23.247Z,10.20
2023-05-19T05:37:26.661Z,11.07
2023-05-19T05:40:29.691Z,10.70
2023-05-19T05:43:33.179Z,9.30
2023-05-19T05:46:36.287Z,9.60
2023-05-19T05:49:40.531Z,11.05
2023-05-19T05:52:49.566Z,10.40
2023-05-19T05:55:53.857Z,10.00
2023-05-19T05:58:57.176Z,10.73
2023-05-19T06:02:00.541Z,10.18
2023-05-19T06:05:05.650Z,9.43
2023-05-19T06:08:09.127Z,10.57
2023-05-19T06:11:12.318Z,9.73
2023-05-19T06:14:16.167Z,8.95
2023-05-19T06:17:21.069Z,8.80
2023-05-19T06:20:23.825Z,8.95
2023-05-19T06:23:29.329Z,9.07
2023-05-19T06:26:32.082Z,8.73
2023-05-19T06:29:36.091Z,9.65
2023-05-19T06:32:39.377Z,8.98
2023-05-19T06:35:43.024Z,7.70
2023-05-19T06:38:45.996Z,8.48
2023-05-19T06:41:49.159Z,9.30
2023-05-19T06:44:59.152Z,10.43
2023-05-19T06:48:03.351Z,9.32
2023-05-19T06:51:06.969Z,10.02
2023-05-19T06:54:13.161Z,9.85
2023-05-19T06:57:17.641Z,9.33
2023-05-19T07:00:23.671Z,9.05
2023-05-19T07:03:27.695Z,9.60
2023-05-19T07:06:31.540Z,9.00
2023-05-19T07:09:35.067Z,9.45
2023-05-19T07:12:38.638Z,9.77
2023-05-19T07:15:42.144Z,9.20
2023-05-19T07:18:45.375Z,9.60
2023-05-19T07:21:48.961Z,8.70
2023-05-19T07:24:51.836Z,10.40
2023-05-19T07:27:54.750Z,10.50
2023-05-19T07:30:57.852Z,10.27
2023-05-19T07:34:00.947Z,10.65
2023-05-19T07:37:04.327Z,10.20
2023-05-19T07:40:08.619Z,10.52
2023-05-19T07:43:12.085Z,8.70
2023-05-19T07:46:14.944Z,10.07
2023-05-19T07:49:18.134Z,10.25
2023-05-19T07:52:21.133Z,10.15
2023-05-19T07:55:24.450Z,10.68
2023-05-19T07:58:27.154Z,9.90
2023-05-19T08:01:31.731Z,9.73
2023-05-19T08:04:34.897Z,10.55
2023-05-19T08:07:37.633Z,9.77
2023-05-19T08:10:40.615Z,9.30
2023-05-19T08:13:43.407Z,10.10
2023-05-19T08:16:46.702Z,9.85
2023-05-19T08:19:49.422Z,10.30
2023-05-19T08:22:52.400Z,10.55
2023-05-19T08:25:55.305Z,10.23
2023-05-19T08:28:58.482Z,10.73
2023-05-19T08:32:02.676Z,9.40
2023-05-19T08:35:06.061Z,9.95
2023-05-19T08:38:08.822Z,10.65
2023-05-19T08:41:12.549Z,10.85
2023-05-19T08:44:17.536Z,9.17
2023-05-19T08:47:23.025Z,9.93
2023-05-19T08:50:30.993Z,9.57
2023-05-19T08:53:40.358Z,10.50
2023-05-19T08:56:45.133Z,10.20
2023-05-19T08:59:50.473Z,9.73
2023-05-19T09:03:00.399Z,9.85
2023-05-19T09:06:10.445Z,10.05
2023-05-19T09:09:13.282Z,10.68
2023-05-19T09:12:16.457Z,10.05
2023-05-19T09:15:19.564Z,10.23
2023-05-19T09:18:28.580Z,9.18
2023-05-19T09:21:32.362Z,10.00
2023-05-19T09:24:36.436Z,9.45
2023-05-19T09:27:39.151Z,9.40
2023-05-19T09:30:42.178Z,8.93
2023-05-19T09:33:46.216Z,8.63
2023-05-19T09:36:49.838Z,8.68
2023-05-19T09:39:53.430Z,8.32
2023-05-19T09:42:56.485Z,9.18
2023-05-19T09:46:05.076Z,8.33
2023-05-19T09:49:11.068Z,8.75
2023-05-19T09:52:16.458Z,8.20
2023-05-19T09:55:23.302Z,9.27
2023-05-19T09:58:28.137Z,7.45
2023-05-19T10:01:33.872Z,8.20
2023-05-19T10:04:37.480Z,7.85
2023-05-19T10:07:41.185Z,7.62
2023-05-19T10:10:47.688Z,8.75
2023-05-19T10:13:51.630Z,8.40
2023-05-19T10:16:59.707Z,8.17
2023-05-19T10:20:04.309Z,7.82
2023-05-19T10:23:07.806Z,7.43
2023-05-19T10:26:11.921Z,7.50
2023-05-19T10:29:19.188Z,7.43
2023-05-19T10:32:27.354Z,7.40
2023-05-19T10:35:49.003Z,6.97
2023-05-19T10:39:01.257Z,7.20
2023-05-19T10:42:10.372Z,7.07
2023-05-19T10:45:22.851Z,6.85
2023-05-19T10:48:26.315Z,6.63
2023-05-19T10:51:32.025Z,6.95
2023-05-19T10:54:43.639Z,7.10
2023-05-19T10:57:58.932Z,6.95
2023-05-19T11:01:02.016Z,6.47
2023-05-19T11:04:14.158Z,6.20
2023-05-19T11:07:19.894Z,5.28
2023-05-19T11:10:26.084Z,7.00
2023-05-19T11:13:29.137Z,6.22
2023-05-19T11:16:32.897Z,6.32
2023-05-19T11:19:36.413Z,5.67
2023-05-19T11:22:40.382Z,5.97
2023-05-19T11:25:44.903Z,5.12
2023-05-19T11:28:48.399Z,5.43
2023-05-19T11:31:52.357Z,5.85
2023-05-19T11:34:56.224Z,5.20
2023-05-19T11:37:59.623Z,5.65
2023-05-19T11:41:04.008Z,5.72
2023-05-19T11:44:12.108Z,5.22
2023-05-19T11:47:15.964Z,5.15
2023-05-19T11:50:20.622Z,4.93
2023-05-19T11:53:23.578Z,5.30
2023-05-19T11:56:26.621Z,4.82
2023-05-19T11:59:34.938Z,5.00
2023-05-19T12:02:39.130Z,4.82
2023-05-19T12:05:48.505Z,4.80
2023-05-19T12:08:52.826Z,4.65
2023-05-19T12:11:55.938Z,5.47
2023-05-19T12:15:00.991Z,6.00
2023-05-19T12:18:04.449Z,5.10
2023-05-19T12:21:07.855Z,4.90
2023-05-19T12:24:11.664Z,4.53
2023-05-19T12:27:20.211Z,3.50
2023-05-19T12:30:30.481Z,4.10
2023-05-19T12:33:35.753Z,4.20
2023-05-19T12:36:41.812Z,4.50
2023-05-19T12:39:44.714Z,4.37
2023-05-19T12:42:52.492Z,5.00
2023-05-19T12:45:55.390Z,4.72
2023-05-19T12:49:01.271Z,4.32
2023-05-19T12:52:07.113Z,3.50
2023-05-19T12:55:14.809Z,4.15
2023-05-19T12:58:17.702Z,4.20
2023-05-19T13:01:20.916Z,3.17
2023-05-19T13:04:27.730Z,4.32
2023-05-19T13:07:31.026Z,4.20
2023-05-19T13:10:35.261Z,4.43
2023-05-19T13:13:38.571Z,3.70
2023-05-19T13:16:41.364Z,4.37
2023-05-19T13:19:44.596Z,4.10
2023-05-19T13:22:48.327Z,4.17
2023-05-19T13:25:52.091Z,4.20
2023-05-19T13:28:54.764Z,4.20
2023-05-19T13:32:01.087Z,4.70
2023-05-19T13:35:04.803Z,5.05
2023-05-19T13:38:12.161Z,4.60
2023-05-19T13:41:16.041Z,4.10
2023-05-19T13:44:19.327Z,4.62
2023-05-19T13:47:26.208Z,4.78
2023-05-19T13:50:29.412Z,3.50
2023-05-19T13:53:33.077Z,3.60
2023-05-19T13:56:36.738Z,3.80
2023-05-19T13:59:49.299Z,3.53
2023-05-19T14:02:56.750Z,3.50
2023-05-19T14:06:00.136Z,3.80
2023-05-19T14:09:03.412Z,3.90
2023-05-19T14:12:07.564Z,3.95
2023-05-19T14:15:11.563Z,3.70
2023-05-19T14:18:17.563Z,3.58
2023-05-19T14:21:20.493Z,3.60
2023-05-19T14:24:23.863Z,3.40
2023-05-19T14:27:26.609Z,3.80
2023-05-19T14:30:30.205Z,3.80
2023-05-19T14:33:35.465Z,3.80
2023-05-19T14:36:39.099Z,3.78
2023-05-19T14:39:42.158Z,3.70
2023-05-19T14:42:45.290Z,3.45
2023-05-19T14:45:48.214Z,3.30
2023-05-19T14:48:51.279Z,3.33
2023-05-19T14:51:54.046Z,3.50
2023-05-19T14:54:57.223Z,3.20
2023-05-19T14:58:00.134Z,3.17
2023-05-19T15:01:03.202Z,3.40
2023-05-19T15:04:06.097Z,3.33
2023-05-19T15:07:10.609Z,3.20
2023-05-19T15:10:13.820Z,2.87
2023-05-19T15:13:19.113Z,3.30
2023-05-19T15:16:21.956Z,3.87
2023-05-19T15:19:25.232Z,3.37
2023-05-19T15:22:27.994Z,3.05
2023-05-19T15:25:31.150Z,3.07
2023-05-19T15:28:34.454Z,3.10
2023-05-19T15:31:38.465Z,3.22
2023-05-19T15:34:41.397Z,3.10
2023-05-19T15:37:44.600Z,3.75
2023-05-19T15:40:47.568Z,3.10
2023-05-19T15:43:50.600Z,3.20
2023-05-19T15:46:53.453Z,3.30
2023-05-19T15:49:56.667Z,3.35
2023-05-19T15:52:59.421Z,3.90
2023-05-19T15:56:04.009Z,3.30
2023-05-19T15:59:07.479Z,3.60
2023-05-19T16:02:11.800Z,3.78
2023-05-19T16:05:14.902Z,3.35
2023-05-19T16:08:17.737Z,3.50
2023-05-19T16:11:21.400Z,3.23
2023-05-19T16:14:24.707Z,3.72
2023-05-19T16:17:27.769Z,3.90
2023-05-19T16:20:31.328Z,3.47
2023-05-19T16:23:34.516Z,3.70
2023-05-19T16:26:37.318Z,3.73
2023-05-19T16:29:40.365Z,3.87
2023-05-19T16:32:43.533Z,3.37
2023-05-19T16:35:46.767Z,3.45
2023-05-19T16:38:49.634Z,4.00
2023-05-19T16:41:53.373Z,3.13
2023-05-19T16:44:56.372Z,3.70
2023-05-19T16:47:59.479Z,3.60
2023-05-19T16:51:02.224Z,3.42
2023-05-19T16:54:05.345Z,3.70
2023-05-19T16:57:08.261Z,3.80
2023-05-19T17:00:11.949Z,3.50
2023-05-19T17:03:15.395Z,3.35
2023-05-19T17:06:18.463Z,3.33
2023-05-19T17:09:25.649Z,3.37
2023-05-19T17:12:28.711Z,3.53
2023-05-19T17:15:31.750Z,3.37
2023-05-19T17:18:34.955Z,3.80
2023-05-19T17:21:37.809Z,3.60
2023-05-19T17:24:41.512Z,3.40
2023-05-19T17:27:44.273Z,3.47
2023-05-19T17:30:47.506Z,3.47
2023-05-19T17:33:50.436Z,3.55
2023-05-19T17:36:53.637Z,3.70
2023-05-19T17:39:56.401Z,4.00
2023-05-19T17:42:59.914Z,3.63
2023-05-19T17:46:03.822Z,4.40
2023-05-19T17:49:06.982Z,3.78
2023-05-19T17:52:10.521Z,3.55
2023-05-19T17:55:15.120Z,3.70
2023-05-19T17:58:18.957Z,3.93
2023-05-19T18:01:24.396Z,3.72
2023-05-19T18:04:27.802Z,4.20
2023-05-19T18:07:32.973Z,4.10
2023-05-19T18:10:38.436Z,4.60
2023-05-19T18:13:41.426Z,4.20
2023-05-19T18:16:44.694Z,4.10
2023-05-19T18:19:47.679Z,4.53
2023-05-19T18:22:51.029Z,4.50
2023-05-19T18:25:53.868Z,4.47
2023-05-19T18:29:02.559Z,4.53
2023-05-19T18:32:06.025Z,4.45
2023-05-19T18:35:09.937Z,4.70
2023-05-19T18:38:12.647Z,4.80
2023-05-19T18:41:15.856Z,5.32
2023-05-19T18:44:18.550Z,5.27
2023-05-19T18:47:23.236Z,4.72
2023-05-19T18:50:25.945Z,5.62
2023-05-19T18:53:29.029Z,6.10
2023-05-19T18:56:33.507Z,6.22
2023-05-19T18:59:36.696Z,5.80
2023-05-19T19:02:39.457Z,6.32
2023-05-19T19:05:42.647Z,6.25
2023-05-19T19:08:45.980Z,6.05
2023-05-19T19:11:49.260Z,6.07
2023-05-19T19:14:52.001Z,6.43
2023-05-19T19:17:55.162Z,9.13
2023-05-19T19:20:59.019Z,9.30
2023-05-19T19:24:02.378Z,8.10
2023-05-19T19:27:05.570Z,8.17
2023-05-19T19:30:09.526Z,8.07
2023-05-19T19:33:12.380Z,8.73
2023-05-19T19:36:15.786Z,7.50
2023-05-19T19:39:19.187Z,7.60
2023-05-19T19:42:22.961Z,7.20
2023-05-19T19:45:25.651Z,7.30
2023-05-19T19:48:29.137Z,7.50
2023-05-19T19:51:32.203Z,7.00
2023-05-19T19:54:35.317Z,6.50
2023-05-19T19:57:38.345Z,7.40
2023-05-19T20:00:41.354Z,7.00
2023-05-19T20:03:44.549Z,6.87
2023-05-19T20:06:47.669Z,7.72
2023-05-19T20:09:52.199Z,7.97
2023-05-19T20:12:55.106Z,7.90
2023-05-19T20:15:58.887Z,7.57
2023-05-19T20:19:02.388Z,7.45
2023-05-19T20:22:05.803Z,8.18
2023-05-19T20:25:09.019Z,7.50
2023-05-19T20:28:11.986Z,7.90
2023-05-19T20:31:15.164Z,7.77
2023-05-19T20:34:18.201Z,7.87
2023-05-19T20:37:22.382Z,8.32
2023-05-19T20:40:25.435Z,8.02
2023-05-19T20:43:28.639Z,8.33
2023-05-19T20:46:32.239Z,8.03
2023-05-19T20:49:35.304Z,7.87
2023-05-19T20:52:38.353Z,8.00
2023-05-19T20:55:41.425Z,8.23
2023-05-19T20:58:44.533Z,8.80
2023-05-19T21:01:47.708Z,9.80
2023-05-19T21:04:51.157Z,9.40
2023-05-19T21:07:54.218Z,8.95
2023-05-19T21:10:57.528Z,8.75
2023-05-19T21:14:04.519Z,8.37
2023-05-19T21:17:07.928Z,8.40
2023-05-19T21:20:11.286Z,8.65
2023-05-19T21:23:14.316Z,8.57
2023-05-19T21:26:17.163Z,8.00
2023-05-19T21:29:20.274Z,8.57
2023-05-19T21:32:23.039Z,8.27
2023-05-19T21:35:26.494Z,8.30
2023-05-19T21:38:29.520Z,7.62
2023-05-19T21:41:32.959Z,8.43
2023-05-19T21:44:35.762Z,8.17
2023-05-19T21:47:38.989Z,8.37
2023-05-19T21:50:41.787Z,8.50
2023-05-19T21:53:44.792Z,8.35
2023-05-19T21:56:47.712Z,8.45
2023-05-19T21:59:50.879Z,8.17
2023-05-19T22:02:53.929Z,7.93
2023-05-19T22:05:57.463Z,9.20
2023-05-19T22:09:02.502Z,8.63
2023-05-19T22:12:06.169Z,8.88
2023-05-19T22:15:09.609Z,9.33
2023-05-19T22:18:13.382Z,9.40
2023-05-19T22:21:16.368Z,9.27
2023-05-19T22:24:19.511Z,9.85
2023-05-19T22:27:22.470Z,8.68
2023-05-19T22:30:25.512Z,8.93
2023-05-19T22:33:28.712Z,8.90
2023-05-19T22:36:32.265Z,9.23
2023-05-19T22:39:34.861Z,9.13
2023-05-19T22:42:38.054Z,8.38
2023-05-19T22:45:41.186Z,8.27
2023-05-19T22:48:44.749Z,8.10
2023-05-19T22:51:47.457Z,8.43
2023-05-19T22:54:50.657Z,8.63
2023-05-19T22:57:53.580Z,8.43
2023-05-19T23:00:57.475Z,8.60
2023-05-19T23:04:00.305Z,8.60
2023-05-19T23:07:03.757Z,8.02
2023-05-19T23:10:07.742Z,8.60
2023-05-19T23:13:12.901Z,7.90
2023-05-19T23:16:15.590Z,7.93
2023-05-19T23:19:20.668Z,8.23
2023-05-19T23:22:23.584Z,8.52
2023-05-19T23:25:26.627Z,8.85
2023-05-19T23:28:29.755Z,7.60
2023-05-19T23:31:34.934Z,8.10
2023-05-19T23:34:37.844Z,8.70
2023-05-19T23:37:41.010Z,7.72
2023-05-19T23:40:44.139Z,8.15
2023-05-19T23:43:47.180Z,8.18
2023-05-19T23:46:49.908Z,8.00
2023-05-19T23:49:53.138Z,8.40
2023-05-19T23:52:55.773Z,8.75
2023-05-19T23:55:58.948Z,8.15
2023-05-19T23:59:02.744Z,7.87
